Suncook, New Hampshire
Current Conditions -  °F | °C
As of 10:51 AM on Friday 21 Nov 2014 (Local Time) from KCON Reporting Station
Overcast Overcast  
Wind Chill: 16°   Ceiling: 5000
Heat Index: 29°   Visibility: 10mi
Dew Point:   Wind: 20mph
Humidity: 43%   Direction: 310°NW
Pressure: 30.09"   Gusts: 28mph
Location:  43.12°N, 71.45°W
Report Text: KCON 211551Z AUTO 31017G24KT 10SM OVC050 M02/M13 A3009 RMK AO2 SLP196 T10171128
Loading
Personal Weather Stations






























Interactive Weather Map New forecast layout! Learn more

10-Day Weather Forecast

Advertisements
Track Severe Weather on mobile